createdAt,value
2023-04-22T00:02:54.969Z,11.2
2023-04-22T00:09:29.124Z,11.3
2023-04-22T00:15:39.687Z,11.3
2023-04-22T00:22:04.150Z,11.3
2023-04-22T00:28:24.328Z,11.5
2023-04-22T00:34:42.165Z,11.5
2023-04-22T00:40:50.173Z,11.4
2023-04-22T00:46:49.498Z,11.5
2023-04-22T00:53:22.164Z,11.6
2023-04-22T00:59:45.507Z,11.6
2023-04-22T01:05:45.239Z,11.7
2023-04-22T01:12:12.081Z,11.7
2023-04-22T01:18:15.626Z,11.7
2023-04-22T01:24:23.315Z,11.7
2023-04-22T01:30:43.839Z,11.8
2023-04-22T01:36:46.652Z,11.7
2023-04-22T01:43:05.633Z,11.7
2023-04-22T01:49:09.436Z,11.8
2023-04-22T01:55:02.833Z,11.8
2023-04-22T02:00:57.713Z,11.8
2023-04-22T02:06:58.968Z,11.8
2023-04-22T02:13:00.313Z,11.7
2023-04-22T02:19:00.953Z,11.9
2023-04-22T02:24:56.305Z,11.9
2023-04-22T02:30:50.186Z,11.9
2023-04-22T02:36:51.766Z,11.8
2023-04-22T02:42:44.278Z,11.9
2023-04-22T02:48:37.439Z,11.9
2023-04-22T02:54:31.977Z,11.8
2023-04-22T03:00:30.163Z,11.8
2023-04-22T03:06:24.455Z,11.8
2023-04-22T03:12:21.459Z,11.7
2023-04-22T03:18:23.547Z,11.7
2023-04-22T03:24:25.496Z,11.6
2023-04-22T03:30:26.625Z,11.6
2023-04-22T03:36:25.802Z,11.6
2023-04-22T03:42:28.548Z,11.6
2023-04-22T03:48:23.716Z,11.6
2023-04-22T03:54:39.033Z,11.6
2023-04-22T04:00:46.981Z,11.7
2023-04-22T04:06:40.705Z,11.7
2023-04-22T04:12:31.562Z,11.7
2023-04-22T04:18:23.882Z,11.7
2023-04-22T04:24:17.155Z,11.7
2023-04-22T04:30:08.589Z,11.7
2023-04-22T04:36:05.822Z,11.9
2023-04-22T04:48:10.235Z,11.9
2023-04-22T04:54:01.287Z,11.9
2023-04-22T04:59:55.018Z,11.9
2023-04-22T05:05:47.030Z,12
2023-04-22T05:11:42.156Z,12.1
2023-04-22T05:17:37.156Z,12.2
2023-04-22T05:23:28.125Z,12.3
2023-04-22T05:29:18.607Z,12.4
2023-04-22T05:35:10.224Z,12.8
2023-04-22T05:41:01.147Z,13
2023-04-22T05:46:57.182Z,13.7
2023-04-22T05:52:50.561Z,13.7
2023-04-22T05:58:42.315Z,13.5
2023-04-22T06:04:37.226Z,13.4
2023-04-22T06:10:35.035Z,13.3
2023-04-22T06:22:58.768Z,13.3
2023-04-22T06:29:30.759Z,13.4
2023-04-22T06:35:50.112Z,13.5
2023-04-22T06:41:56.164Z,13.6
2023-04-22T06:48:14.024Z,13.8
2023-04-22T06:54:19.390Z,14
2023-04-22T07:00:40.678Z,14.1
2023-04-22T07:07:01.600Z,14.3
2023-04-22T07:13:15.938Z,14.5
2023-04-22T07:19:36.811Z,14.8
2023-04-22T07:25:58.653Z,14.9
2023-04-22T07:32:01.525Z,14.9
2023-04-22T07:37:57.076Z,15
2023-04-22T07:44:10.050Z,15.3
2023-04-22T07:50:29.677Z,15.4
2023-04-22T07:56:46.182Z,15.6
2023-04-22T08:02:54.669Z,15.8
2023-04-22T08:09:44.527Z,15.9
2023-04-22T08:15:42.617Z,16.2
2023-04-22T08:21:47.514Z,16.6
2023-04-22T08:27:42.729Z,16.7
2023-04-22T08:33:35.750Z,17
2023-04-22T08:39:28.921Z,17.2
2023-04-22T08:45:31.923Z,17.3
2023-04-22T08:51:40.940Z,17.4
2023-04-22T08:57:40.610Z,17.5
2023-04-22T09:03:38.478Z,17.6
2023-04-22T09:09:31.613Z,17.9
2023-04-22T09:15:29.441Z,18
2023-04-22T09:21:20.863Z,18.1
2023-04-22T09:27:13.273Z,18.3
2023-04-22T09:33:05.132Z,18.5
2023-04-22T09:38:57.487Z,18.4
2023-04-22T09:44:49.851Z,18.4
2023-04-22T09:50:42.255Z,18.7
2023-04-22T09:56:34.416Z,19
2023-04-22T10:02:26.879Z,19.2
2023-04-22T10:08:20.160Z,19.1
2023-04-22T10:14:13.372Z,19.1
2023-04-22T10:20:05.453Z,19.1
2023-04-22T10:25:57.447Z,19.2
2023-04-22T10:31:50.091Z,19.6
2023-04-22T10:37:43.168Z,19.8
2023-04-22T10:43:35.028Z,20
2023-04-22T10:49:27.258Z,20.2
2023-04-22T10:55:19.248Z,20.6
2023-04-22T11:01:11.111Z,20.9
2023-04-22T11:07:03.192Z,21.1
2023-04-22T11:12:54.920Z,21.3
2023-04-22T11:18:47.079Z,21.3
2023-04-22T11:24:38.825Z,21.4
2023-04-22T11:30:30.586Z,21.1
2023-04-22T11:36:22.792Z,21.3
2023-04-22T11:42:14.852Z,21.2
2023-04-22T11:48:06.818Z,21.4
2023-04-22T11:54:00.062Z,21.5
2023-04-22T11:59:52.354Z,21.6
2023-04-22T12:05:44.438Z,21.6
2023-04-22T12:11:36.284Z,21.5
2023-04-22T12:17:28.043Z,21.6
2023-04-22T12:23:19.884Z,21.6
2023-04-22T12:29:12.012Z,21.7
2023-04-22T12:35:05.609Z,21.9
2023-04-22T12:40:56.835Z,21.8
2023-04-22T12:46:49.207Z,21.5
2023-04-22T12:52:41.156Z,21.2
2023-04-22T12:58:33.381Z,21.2
2023-04-22T13:04:25.098Z,21.1
2023-04-22T13:10:17.832Z,21
2023-04-22T13:16:09.796Z,20.8
2023-04-22T13:22:02.755Z,20.7
2023-04-22T13:27:57.312Z,20.6
2023-04-22T13:33:49.697Z,20.6
2023-04-22T13:39:42.070Z,20.6
2023-04-22T13:45:34.362Z,20.5
2023-04-22T13:51:26.222Z,20.4
2023-04-22T13:57:18.206Z,20.3
2023-04-22T14:03:10.036Z,20.1
2023-04-22T14:09:03.236Z,20
2023-04-22T14:14:55.655Z,19.9
2023-04-22T14:20:47.466Z,19.8
2023-04-22T14:26:39.644Z,19.8
2023-04-22T14:32:31.824Z,19.9
2023-04-22T14:38:24.590Z,19.9
2023-04-22T14:44:16.450Z,20
2023-04-22T14:50:08.672Z,20.1
2023-04-22T14:55:59.883Z,20.1
2023-04-22T15:01:52.688Z,20.1
2023-04-22T15:07:44.987Z,20
2023-04-22T15:13:37.443Z,20
2023-04-22T15:19:37.666Z,19.8
2023-04-22T15:25:29.549Z,19.8
2023-04-22T15:31:36.726Z,19.7
2023-04-22T15:37:29.316Z,19.6
2023-04-22T15:43:22.403Z,19.5
2023-04-22T15:49:15.548Z,19.4
2023-04-22T15:55:10.105Z,19.4
2023-04-22T16:01:18.549Z,19.2
2023-04-22T16:07:11.868Z,19.1
2023-04-22T16:13:04.738Z,19
2023-04-22T16:18:56.669Z,18.9
2023-04-22T16:24:52.502Z,18.9
2023-04-22T16:30:48.357Z,18.8
2023-04-22T16:36:44.534Z,18.8
2023-04-22T16:42:45.811Z,18.8
2023-04-22T16:48:39.247Z,18.6
2023-04-22T16:54:31.685Z,18.7
2023-04-22T17:00:24.166Z,18.6
2023-04-22T17:06:16.733Z,18.5
2023-04-22T17:12:10.490Z,18.2
2023-04-22T17:18:08.753Z,17.6
2023-04-22T17:24:16.406Z,17.5
2023-04-22T17:36:25.847Z,17
2023-04-22T17:42:42.771Z,17.1
2023-04-22T17:48:50.990Z,17.2
2023-04-22T17:54:47.492Z,17
2023-04-22T18:07:29.481Z,17
2023-04-22T18:13:23.399Z,16.9
2023-04-22T18:19:19.887Z,16.9
2023-04-22T18:25:20.547Z,16.8
2023-04-22T18:31:12.401Z,16.6
2023-04-22T18:55:58.256Z,16.6
2023-04-22T19:01:57.410Z,16.5
2023-04-22T19:07:55.862Z,16.6
2023-04-22T19:19:56.453Z,16.5
2023-04-22T19:26:04.814Z,16.5
2023-04-22T19:38:21.421Z,16.4
2023-04-22T20:16:49.965Z,16.3
2023-04-22T20:28:52.980Z,16.2
2023-04-22T20:34:46.641Z,16.2
2023-04-22T20:40:46.981Z,16.2
2023-04-22T21:36:32.602Z,15.9
2023-04-22T21:48:38.155Z,15.6
2023-04-22T21:54:29.893Z,15.4
2023-04-22T22:00:27.086Z,15.3
2023-04-22T22:06:25.848Z,15.4
2023-04-22T22:12:25.491Z,15.1
2023-04-22T22:18:22.587Z,14.9
2023-04-22T22:24:15.982Z,14.7
2023-04-22T22:30:15.274Z,14.8
2023-04-22T22:36:12.386Z,14.8
2023-04-22T22:42:13.724Z,14.5
2023-04-22T22:48:26.829Z,14.5
2023-04-22T22:54:20.518Z,14.6
2023-04-22T23:00:14.796Z,14.1
2023-04-22T23:06:11.713Z,14.2
2023-04-22T23:12:06.491Z,14.3
2023-04-22T23:18:22.245Z,13.8
2023-04-22T23:24:16.180Z,13.8
2023-04-22T23:36:25.012Z,13.8
2023-04-22T23:42:18.113Z,13.6
